createdAt,value
2022-08-25T00:00:50.269Z,11.77
2022-08-25T00:01:52.210Z,11.86
2022-08-25T00:02:55.589Z,11.90
2022-08-25T00:03:48.792Z,11.89
2022-08-25T00:04:53.601Z,11.85
2022-08-25T00:05:48.676Z,11.80
2022-08-25T00:06:49.189Z,11.78
2022-08-25T00:08:49.346Z,11.80
2022-08-25T00:09:48.614Z,11.86
2022-08-25T00:10:57.752Z,11.93
2022-08-25T00:11:49.995Z,12.03
2022-08-25T00:12:48.598Z,12.12
2022-08-25T00:13:54.264Z,12.20
2022-08-25T00:14:48.639Z,12.28
2022-08-25T00:15:49.570Z,12.37
2022-08-25T00:16:49.210Z,12.44
2022-08-25T00:17:49.234Z,12.50
2022-08-25T00:18:51.964Z,12.57
2022-08-25T00:19:48.704Z,12.61
2022-08-25T00:20:49.331Z,12.58
2022-08-25T00:21:48.822Z,12.55
2022-08-25T00:22:49.516Z,12.52
2022-08-25T00:25:48.832Z,12.54
2022-08-25T00:26:51.193Z,12.57
2022-08-25T00:27:48.750Z,12.58
2022-08-25T00:28:48.579Z,12.57
2022-08-25T00:29:48.581Z,12.58
2022-08-25T00:30:49.878Z,12.57
2022-08-25T00:32:52.540Z,12.55
2022-08-25T00:33:51.157Z,12.56
2022-08-25T00:34:48.595Z,12.55
2022-08-25T00:35:48.788Z,12.54
2022-08-25T00:36:51.942Z,12.57
2022-08-25T00:37:48.676Z,12.58
2022-08-25T00:38:50.135Z,12.55
2022-08-25T00:39:48.587Z,12.50
2022-08-25T00:40:58.623Z,12.48
2022-08-25T00:41:49.826Z,12.44
2022-08-25T00:42:48.737Z,12.41
2022-08-25T00:43:53.083Z,12.40
2022-08-25T00:44:48.634Z,12.39
2022-08-25T00:45:48.715Z,12.36
2022-08-25T00:46:51.349Z,12.31
2022-08-25T00:47:48.585Z,12.25
2022-08-25T00:48:52.508Z,12.20
2022-08-25T00:49:54.450Z,12.16
2022-08-25T00:50:48.581Z,12.14
2022-08-25T00:51:52.875Z,12.11
2022-08-25T00:52:52.720Z,12.09
2022-08-25T00:53:49.529Z,12.07
2022-08-25T00:54:50.594Z,12.05
2022-08-25T00:56:49.259Z,12.04
2022-08-25T00:57:56.587Z,12.03
2022-08-25T00:58:48.701Z,12.02
2022-08-25T00:59:48.848Z,12.01
2022-08-25T01:00:52.362Z,12.00
2022-08-25T01:01:49.840Z,12.03
2022-08-25T01:02:49.429Z,12.05
2022-08-25T01:03:48.589Z,12.06
2022-08-25T01:04:49.343Z,12.07
2022-08-25T01:06:50.052Z,12.06
2022-08-25T01:09:50.616Z,12.05
2022-08-25T01:10:50.554Z,12.04
2022-08-25T01:11:49.444Z,12.01
2022-08-25T01:13:53.781Z,12.02
2022-08-25T01:14:51.729Z,12.03
2022-08-25T01:15:53.737Z,12.05
2022-08-25T01:16:51.159Z,12.10
2022-08-25T01:17:51.423Z,12.13
2022-08-25T01:18:53.082Z,12.18
2022-08-25T01:19:49.057Z,12.23
2022-08-25T01:20:52.564Z,12.27
2022-08-25T01:22:55.124Z,12.26
2022-08-25T01:24:56.961Z,12.22
2022-08-25T01:25:57.758Z,12.17
2022-08-25T01:26:48.582Z,12.16
2022-08-25T01:27:48.579Z,12.17
2022-08-25T01:28:59.669Z,12.18
2022-08-25T01:30:49.062Z,12.17
2022-08-25T01:31:50.806Z,12.14
2022-08-25T01:32:49.389Z,12.12
2022-08-25T01:34:48.765Z,12.15
2022-08-25T01:35:48.977Z,12.20
2022-08-25T01:36:48.981Z,12.24
2022-08-25T01:37:48.674Z,12.31
2022-08-25T01:38:48.969Z,12.38
2022-08-25T01:39:48.737Z,12.46
2022-08-25T01:40:49.039Z,12.53
2022-08-25T01:42:00.364Z,12.58
2022-08-25T01:43:48.756Z,12.61
2022-08-25T01:44:49.457Z,12.64
2022-08-25T01:45:49.753Z,12.71
2022-08-25T01:46:48.687Z,12.79
2022-08-25T01:47:48.581Z,12.83
2022-08-25T01:48:48.538Z,12.82
2022-08-25T01:49:48.782Z,12.76
2022-08-25T01:50:48.567Z,12.69
2022-08-25T01:51:59.388Z,12.67
2022-08-25T01:53:48.643Z,12.71
2022-08-25T01:54:48.528Z,12.73
2022-08-25T01:55:57.958Z,12.77
2022-08-25T01:56:48.520Z,12.81
2022-08-25T01:57:48.825Z,12.85
2022-08-25T01:58:50.205Z,12.91
2022-08-25T01:59:48.520Z,12.96
2022-08-25T02:00:49.562Z,13.02
2022-08-25T02:01:48.653Z,13.05
2022-08-25T02:02:52.237Z,13.07
2022-08-25T02:03:50.494Z,13.08
2022-08-25T02:04:48.884Z,13.11
2022-08-25T02:05:49.306Z,13.10
2022-08-25T02:06:48.495Z,13.11
2022-08-25T02:07:48.815Z,13.13
2022-08-25T02:08:53.544Z,13.18
2022-08-25T02:09:48.566Z,13.23
2022-08-25T02:10:48.559Z,13.25
2022-08-25T02:14:48.935Z,13.27
2022-08-25T02:15:53.737Z,13.28
2022-08-25T02:16:51.237Z,13.26
2022-08-25T02:18:48.795Z,13.29
2022-08-25T02:19:48.533Z,13.31
2022-08-25T02:21:48.765Z,13.29
2022-08-25T02:22:53.103Z,13.30
2022-08-25T02:24:48.544Z,13.29
2022-08-25T02:25:48.576Z,13.25
2022-08-25T02:26:48.671Z,13.23
2022-08-25T02:27:48.569Z,13.19
2022-08-25T02:28:50.016Z,13.17
2022-08-25T02:29:48.599Z,13.16
2022-08-25T02:30:48.528Z,13.14
2022-08-25T02:32:48.544Z,13.15
2022-08-25T02:33:48.937Z,13.16
2022-08-25T02:34:48.591Z,13.17
2022-08-25T02:35:48.553Z,13.16
2022-08-25T02:36:48.520Z,13.13
2022-08-25T02:37:48.526Z,13.12
2022-08-25T02:38:48.807Z,13.13
2022-08-25T02:39:48.686Z,13.14
2022-08-25T02:40:51.764Z,13.15
2022-08-25T02:41:48.524Z,13.13
2022-08-25T02:42:49.235Z,13.08
2022-08-25T02:43:49.986Z,13.03
2022-08-25T02:44:48.464Z,13.02
2022-08-25T02:45:48.715Z,13.05
2022-08-25T02:46:49.047Z,13.09
2022-08-25T02:47:48.730Z,13.10
2022-08-25T02:48:49.377Z,13.05
2022-08-25T02:49:48.853Z,12.98
2022-08-25T02:50:52.699Z,12.91
2022-08-25T02:51:48.531Z,12.89
2022-08-25T02:52:50.730Z,12.90
2022-08-25T02:54:48.474Z,12.91
2022-08-25T02:55:48.653Z,12.93
2022-08-25T02:56:48.716Z,12.95
2022-08-25T02:57:48.858Z,12.98
2022-08-25T02:58:49.113Z,13.01
2022-08-25T02:59:48.677Z,13.02
2022-08-25T03:00:49.562Z,13.03
2022-08-25T03:01:48.523Z,13.02
2022-08-25T03:02:48.684Z,13.01
2022-08-25T03:03:50.053Z,12.99
2022-08-25T03:04:48.585Z,12.98
2022-08-25T03:05:49.083Z,12.97
2022-08-25T03:06:48.585Z,12.98
2022-08-25T03:07:48.573Z,13.00
2022-08-25T03:08:48.553Z,13.01
2022-08-25T03:09:48.690Z,13.00
2022-08-25T03:10:48.509Z,12.98
2022-08-25T03:11:48.559Z,12.97
2022-08-25T03:12:48.715Z,12.96
2022-08-25T03:13:51.342Z,12.95
2022-08-25T03:15:49.472Z,12.93
2022-08-25T03:16:48.578Z,12.90
2022-08-25T03:17:50.961Z,12.87
2022-08-25T03:18:48.944Z,12.85
2022-08-25T03:19:49.019Z,12.83
2022-08-25T03:20:48.520Z,12.84
2022-08-25T03:21:48.988Z,12.85
2022-08-25T03:22:49.018Z,12.87
2022-08-25T03:24:48.458Z,12.84
2022-08-25T03:25:57.890Z,12.81
2022-08-25T03:26:56.804Z,12.79
2022-08-25T03:27:49.607Z,12.78
2022-08-25T03:29:49.512Z,12.79
2022-08-25T03:30:48.682Z,12.81
2022-08-25T03:31:48.706Z,12.82
2022-08-25T03:32:48.769Z,12.83
2022-08-25T03:34:48.456Z,12.84
2022-08-25T03:35:48.532Z,12.85
2022-08-25T03:36:50.553Z,12.86
2022-08-25T03:38:48.427Z,12.85
2022-08-25T03:39:48.498Z,12.83
2022-08-25T03:40:49.036Z,12.80
2022-08-25T03:41:48.628Z,12.78
2022-08-25T03:42:48.496Z,12.75
2022-08-25T03:43:49.674Z,12.72
2022-08-25T03:45:49.204Z,12.73
2022-08-25T03:46:51.736Z,12.75
2022-08-25T03:48:49.163Z,12.73
2022-08-25T03:49:48.502Z,12.72
2022-08-25T03:50:52.215Z,12.71
2022-08-25T03:51:50.886Z,12.68
2022-08-25T03:52:53.960Z,12.63
2022-08-25T03:53:48.448Z,12.58
2022-08-25T03:54:48.982Z,12.52
2022-08-25T03:55:48.477Z,12.48
2022-08-25T03:56:48.523Z,12.41
2022-08-25T03:57:48.553Z,12.33
2022-08-25T03:58:48.498Z,12.23
2022-08-25T03:59:48.517Z,12.15
2022-08-25T04:00:48.603Z,12.10
2022-08-25T04:01:54.487Z,12.08
2022-08-25T04:02:49.109Z,12.10
2022-08-25T04:04:48.531Z,12.09
2022-08-25T04:05:48.498Z,12.10
2022-08-25T04:07:48.427Z,12.08
2022-08-25T04:08:49.051Z,12.06
2022-08-25T04:10:48.715Z,12.05
2022-08-25T04:11:49.290Z,12.02
2022-08-25T04:12:49.512Z,12.00
2022-08-25T04:14:50.082Z,12.01
2022-08-25T04:15:49.332Z,12.03
2022-08-25T04:16:48.580Z,12.05
2022-08-25T04:17:48.434Z,12.07
2022-08-25T04:18:50.096Z,12.08
2022-08-25T04:19:48.395Z,12.07
2022-08-25T04:20:48.453Z,12.02
2022-08-25T04:21:48.487Z,11.97
2022-08-25T04:22:48.502Z,11.93
2022-08-25T04:23:50.233Z,11.91
2022-08-25T04:24:48.449Z,11.88
2022-08-25T04:25:48.399Z,11.85
2022-08-25T04:27:48.538Z,11.83
2022-08-25T04:30:51.988Z,11.82
2022-08-25T04:33:49.615Z,11.81
2022-08-25T04:34:49.275Z,11.80
2022-08-25T04:36:52.616Z,11.79
2022-08-25T04:37:48.994Z,11.76
2022-08-25T04:38:50.188Z,11.73
2022-08-25T04:39:48.507Z,11.72
2022-08-25T04:40:57.449Z,11.69
2022-08-25T04:41:49.714Z,11.66
2022-08-25T04:42:48.493Z,11.65
2022-08-25T04:47:52.938Z,11.63
2022-08-25T04:49:48.470Z,11.59
2022-08-25T04:50:48.757Z,11.57
2022-08-25T04:51:48.446Z,11.54
2022-08-25T04:52:49.612Z,11.51
2022-08-25T04:53:48.456Z,11.50
2022-08-25T04:54:48.674Z,11.49
2022-08-25T04:56:49.671Z,11.48
2022-08-25T04:57:48.756Z,11.46
2022-08-25T04:58:48.472Z,11.43
2022-08-25T04:59:48.427Z,11.42
2022-08-25T05:00:49.672Z,11.40
2022-08-25T05:01:49.699Z,11.39
2022-08-25T05:02:48.442Z,11.38
2022-08-25T05:03:53.999Z,11.37
2022-08-25T05:04:48.434Z,11.35
2022-08-25T05:05:48.403Z,11.34
2022-08-25T05:07:48.423Z,11.32
2022-08-25T05:08:48.365Z,11.30
2022-08-25T05:09:48.391Z,11.28
2022-08-25T05:10:48.510Z,11.26
2022-08-25T05:11:48.422Z,11.24
2022-08-25T05:12:48.399Z,11.21
2022-08-25T05:13:51.424Z,11.19
2022-08-25T05:14:48.729Z,11.17
2022-08-25T05:15:55.886Z,11.14
2022-08-25T05:16:49.357Z,11.12
2022-08-25T05:17:51.581Z,11.10
2022-08-25T05:18:49.120Z,11.08
2022-08-25T05:19:48.468Z,11.06
2022-08-25T05:20:48.462Z,11.02
2022-08-25T05:21:48.442Z,10.98
2022-08-25T05:22:48.398Z,10.94
2022-08-25T05:23:49.148Z,10.89
2022-08-25T05:24:48.363Z,10.83
2022-08-25T05:25:49.230Z,10.78
2022-08-25T05:26:48.675Z,10.71
2022-08-25T05:27:48.353Z,10.66
2022-08-25T05:28:50.829Z,10.59
2022-08-25T05:29:48.569Z,10.54
2022-08-25T05:30:50.413Z,10.49
2022-08-25T05:31:50.831Z,10.45
2022-08-25T05:32:48.534Z,10.41
2022-08-25T05:33:49.014Z,10.38
2022-08-25T05:34:48.428Z,10.36
2022-08-25T05:35:48.388Z,10.35
2022-08-25T05:36:49.220Z,10.31
2022-08-25T05:37:48.701Z,10.28
2022-08-25T05:38:49.399Z,10.25
2022-08-25T05:39:48.680Z,10.22
2022-08-25T05:40:48.479Z,10.19
2022-08-25T05:41:48.513Z,10.17
2022-08-25T05:42:48.423Z,10.14
2022-08-25T05:43:50.899Z,10.13
2022-08-25T05:44:48.394Z,10.11
2022-08-25T05:45:48.473Z,10.10
2022-08-25T05:46:48.366Z,10.09
2022-08-25T05:47:49.025Z,10.07
2022-08-25T05:48:49.156Z,10.05
2022-08-25T05:49:49.318Z,10.03
2022-08-25T05:50:55.476Z,10.01
2022-08-25T05:51:48.478Z,9.98
2022-08-25T05:52:48.336Z,9.95
2022-08-25T05:53:50.412Z,9.93
2022-08-25T05:54:48.329Z,9.89
2022-08-25T05:55:48.958Z,9.85
2022-08-25T05:56:48.641Z,9.82
2022-08-25T05:57:48.935Z,9.79
2022-08-25T05:58:48.808Z,9.75
2022-08-25T05:59:48.372Z,9.72
2022-08-25T06:00:49.073Z,9.68
2022-08-25T06:01:57.779Z,9.65
2022-08-25T06:02:49.786Z,9.60
2022-08-25T06:03:48.833Z,9.57
2022-08-25T06:04:48.443Z,9.51
2022-08-25T06:05:48.637Z,9.48
2022-08-25T06:06:48.982Z,9.43
2022-08-25T06:07:50.583Z,9.39
2022-08-25T06:08:48.438Z,9.36
2022-08-25T06:09:50.099Z,9.30
2022-08-25T06:10:53.121Z,9.26
2022-08-25T06:11:54.062Z,9.21
2022-08-25T06:12:50.139Z,9.16
2022-08-25T06:13:48.442Z,9.12
2022-08-25T06:14:49.650Z,9.07
2022-08-25T06:15:49.222Z,9.02
2022-08-25T06:16:51.579Z,8.97
2022-08-25T06:17:49.543Z,8.91
2022-08-25T06:18:48.344Z,8.84
2022-08-25T06:19:48.393Z,8.78
2022-08-25T06:20:48.502Z,8.71
2022-08-25T06:21:48.380Z,8.66
2022-08-25T06:22:48.765Z,8.60
2022-08-25T06:23:49.382Z,8.54
2022-08-25T06:24:48.720Z,8.48
2022-08-25T06:25:53.008Z,8.44
2022-08-25T06:26:48.318Z,8.39
2022-08-25T06:27:48.328Z,8.35
2022-08-25T06:28:48.413Z,8.31
2022-08-25T06:29:48.361Z,8.25
2022-08-25T06:30:48.855Z,8.18
2022-08-25T06:31:50.174Z,8.11
2022-08-25T06:32:49.427Z,8.03
2022-08-25T06:33:48.562Z,7.97
2022-08-25T06:34:48.433Z,7.91
2022-08-25T06:35:48.298Z,7.85
2022-08-25T06:36:48.946Z,7.81
2022-08-25T06:37:48.583Z,7.77
2022-08-25T06:38:48.850Z,7.73
2022-08-25T06:39:48.350Z,7.68
2022-08-25T06:40:49.775Z,7.65
2022-08-25T06:41:52.852Z,7.61
2022-08-25T06:42:50.743Z,7.58
2022-08-25T06:43:51.806Z,7.54
2022-08-25T06:44:48.354Z,7.50
2022-08-25T06:45:48.689Z,7.48
2022-08-25T06:46:48.443Z,7.45
2022-08-25T06:47:48.384Z,7.42
2022-08-25T06:48:48.932Z,7.40
2022-08-25T06:49:48.354Z,7.38
2022-08-25T06:50:48.547Z,7.36
2022-08-25T06:51:49.054Z,7.34
2022-08-25T06:52:48.304Z,7.33
2022-08-25T06:53:50.351Z,7.31
2022-08-25T06:54:49.086Z,7.28
2022-08-25T06:55:57.992Z,7.25
2022-08-25T06:56:49.593Z,7.22
2022-08-25T06:57:48.708Z,7.20
2022-08-25T06:58:49.354Z,7.18
2022-08-25T06:59:48.485Z,7.12
2022-08-25T07:00:48.361Z,7.07
2022-08-25T07:01:49.592Z,7.01
2022-08-25T07:02:48.344Z,6.96
2022-08-25T07:03:48.660Z,6.93
2022-08-25T07:04:48.481Z,6.88
2022-08-25T07:05:53.790Z,6.83
2022-08-25T07:06:48.657Z,6.77
2022-08-25T07:07:48.335Z,6.74
2022-08-25T07:08:49.068Z,6.71
2022-08-25T07:09:48.399Z,6.69
2022-08-25T07:10:48.902Z,6.66
2022-08-25T07:11:48.867Z,6.62
2022-08-25T07:12:48.320Z,6.58
2022-08-25T07:13:48.741Z,6.54
2022-08-25T07:15:03.460Z,6.51
2022-08-25T07:15:53.799Z,6.48
2022-08-25T07:16:50.384Z,6.43
2022-08-25T07:17:49.034Z,6.39
2022-08-25T07:18:49.602Z,6.36
2022-08-25T07:19:48.267Z,6.33
2022-08-25T07:20:48.830Z,6.30
2022-08-25T07:21:52.875Z,6.26
2022-08-25T07:22:48.522Z,6.22
2022-08-25T07:23:48.358Z,6.19
2022-08-25T07:24:48.335Z,6.16
2022-08-25T07:25:48.690Z,6.13
2022-08-25T07:26:48.669Z,6.11
2022-08-25T07:27:48.408Z,6.08
2022-08-25T07:28:48.892Z,6.06
2022-08-25T07:29:50.297Z,6.04
2022-08-25T07:32:48.399Z,6.02
2022-08-25T07:33:57.697Z,6.01
2022-08-25T07:34:57.656Z,5.98
2022-08-25T07:35:48.525Z,5.94
2022-08-25T07:36:48.347Z,5.91
2022-08-25T07:37:52.444Z,5.89
2022-08-25T07:38:48.308Z,5.87
2022-08-25T07:39:48.360Z,5.86
2022-08-25T07:40:54.710Z,5.84
2022-08-25T07:41:48.309Z,5.81
2022-08-25T07:42:50.031Z,5.78
2022-08-25T07:43:48.672Z,5.75
2022-08-25T07:44:48.248Z,5.72
2022-08-25T07:45:49.450Z,5.70
2022-08-25T07:47:48.509Z,5.70
2022-08-25T07:49:48.987Z,5.69
2022-08-25T07:50:49.518Z,5.68
2022-08-25T07:52:03.608Z,5.67
2022-08-25T07:52:53.876Z,5.66
2022-08-25T07:53:48.304Z,5.64
2022-08-25T07:54:48.300Z,5.61
2022-08-25T07:55:48.542Z,5.57
2022-08-25T07:56:48.370Z,5.52
2022-08-25T07:57:50.924Z,5.48
2022-08-25T07:58:48.981Z,5.44
2022-08-25T07:59:49.784Z,5.41
2022-08-25T08:00:52.277Z,5.39
2022-08-25T08:01:48.332Z,5.35
2022-08-25T08:02:48.836Z,5.33
2022-08-25T08:03:51.158Z,5.29
2022-08-25T08:04:50.285Z,5.26
2022-08-25T08:05:48.786Z,5.23
2022-08-25T08:06:48.340Z,5.21
2022-08-25T08:07:48.319Z,5.18
2022-08-25T08:08:50.532Z,5.14
2022-08-25T08:09:56.216Z,5.11
2022-08-25T08:11:03.290Z,5.08
2022-08-25T08:11:54.482Z,5.04
2022-08-25T08:12:48.271Z,5.02
2022-08-25T08:13:50.776Z,5.00
2022-08-25T08:14:48.647Z,4.98
2022-08-25T08:15:49.877Z,4.97
2022-08-25T08:16:48.561Z,4.95
2022-08-25T08:17:48.364Z,4.93
2022-08-25T08:18:49.389Z,4.92
2022-08-25T08:19:48.311Z,4.91
2022-08-25T08:20:49.734Z,4.90
2022-08-25T08:22:48.390Z,4.88
2022-08-25T08:23:50.390Z,4.85
2022-08-25T08:24:54.965Z,4.82
2022-08-25T08:25:48.344Z,4.79
2022-08-25T08:26:58.286Z,4.76
2022-08-25T08:27:48.956Z,4.73
2022-08-25T08:28:52.162Z,4.71
2022-08-25T08:29:48.360Z,4.69
2022-08-25T08:30:53.144Z,4.66
2022-08-25T08:31:48.948Z,4.64
2022-08-25T08:33:08.545Z,4.62
2022-08-25T08:33:48.733Z,4.61
2022-08-25T08:34:51.323Z,4.60
2022-08-25T08:35:48.312Z,4.58
2022-08-25T08:36:48.338Z,4.56
2022-08-25T08:37:48.348Z,4.53
2022-08-25T08:38:49.591Z,4.49
2022-08-25T08:39:48.301Z,4.44
2022-08-25T08:41:15.471Z,4.39
2022-08-25T08:42:12.131Z,4.33
2022-08-25T08:43:04.391Z,4.28
2022-08-25T08:43:51.973Z,4.24
2022-08-25T08:45:03.402Z,4.21
2022-08-25T08:45:53.162Z,4.20
2022-08-25T08:47:02.792Z,4.19
2022-08-25T08:49:01.684Z,4.20
2022-08-25T08:49:51.265Z,4.21
2022-08-25T08:51:04.756Z,4.23
2022-08-25T08:51:54.358Z,4.25
2022-08-25T08:53:52.402Z,4.24
2022-08-25T08:54:57.094Z,4.21
2022-08-25T08:55:53.055Z,4.19
2022-08-25T08:56:51.209Z,4.17
2022-08-25T08:57:53.457Z,4.15
2022-08-25T08:58:54.238Z,4.13
2022-08-25T08:59:52.369Z,4.11
2022-08-25T09:01:56.805Z,4.09
2022-08-25T09:02:52.823Z,4.10
2022-08-25T09:03:55.191Z,4.12
2022-08-25T09:04:56.282Z,4.14
2022-08-25T09:05:51.859Z,4.18
2022-08-25T09:06:50.348Z,4.22
2022-08-25T09:07:55.096Z,4.25
2022-08-25T09:08:49.072Z,4.29
2022-08-25T09:09:48.708Z,4.33
2022-08-25T09:10:55.318Z,4.37
2022-08-25T09:11:58.963Z,4.41
2022-08-25T09:13:04.960Z,4.44
2022-08-25T09:14:06.181Z,4.48
2022-08-25T09:14:56.422Z,4.50
2022-08-25T09:16:20.537Z,4.51
2022-08-25T09:18:04.909Z,4.50
2022-08-25T09:18:57.593Z,4.49
2022-08-25T09:20:18.654Z,4.47
2022-08-25T09:21:02.140Z,4.44
2022-08-25T09:22:01.039Z,4.40
2022-08-25T09:23:01.389Z,4.36
2022-08-25T09:24:06.191Z,4.33
2022-08-25T09:24:59.317Z,4.30
2022-08-25T09:25:54.031Z,4.28
2022-08-25T09:27:00.845Z,4.24
2022-08-25T09:28:03.194Z,4.23
2022-08-25T09:28:52.458Z,4.22
2022-08-25T09:30:06.275Z,4.19
2022-08-25T09:30:58.647Z,4.18
2022-08-25T09:31:49.780Z,4.15
2022-08-25T09:32:52.634Z,4.13
2022-08-25T09:33:48.366Z,4.10
2022-08-25T09:34:50.374Z,4.08
2022-08-25T09:35:49.405Z,4.05
2022-08-25T09:36:50.995Z,4.01
2022-08-25T09:37:58.814Z,3.95
2022-08-25T09:38:48.328Z,3.90
2022-08-25T09:39:48.276Z,3.85
2022-08-25T09:40:52.375Z,3.80
2022-08-25T09:41:52.246Z,3.77
2022-08-25T09:42:51.413Z,3.72
2022-08-25T09:43:55.162Z,3.69
2022-08-25T09:44:49.471Z,3.67
2022-08-25T09:45:51.886Z,3.64
2022-08-25T09:47:03.441Z,3.63
2022-08-25T09:48:56.818Z,3.64
2022-08-25T09:51:48.565Z,3.62
2022-08-25T09:52:53.499Z,3.60
2022-08-25T09:53:55.194Z,3.59
2022-08-25T09:56:55.488Z,3.60
2022-08-25T09:58:48.804Z,3.62
2022-08-25T09:59:57.451Z,3.63
2022-08-25T10:01:06.297Z,3.64
2022-08-25T10:04:00.237Z,3.63
2022-08-25T10:04:48.414Z,3.62
2022-08-25T10:08:59.579Z,3.63
2022-08-25T10:09:55.571Z,3.64
2022-08-25T10:11:49.031Z,3.63
2022-08-25T10:13:52.356Z,3.62
2022-08-25T10:14:49.145Z,3.61
2022-08-25T10:15:58.573Z,3.62
2022-08-25T10:16:50.118Z,3.61
2022-08-25T10:17:48.590Z,3.62
2022-08-25T10:19:06.876Z,3.61
2022-08-25T10:19:48.206Z,3.60
2022-08-25T10:21:07.560Z,3.59
2022-08-25T10:22:05.790Z,3.57
2022-08-25T10:22:50.428Z,3.55
2022-08-25T10:23:51.779Z,3.52
2022-08-25T10:24:49.694Z,3.51
2022-08-25T10:28:01.589Z,3.52
2022-08-25T10:29:05.962Z,3.53
2022-08-25T10:30:04.821Z,3.51
2022-08-25T10:31:00.851Z,3.50
2022-08-25T10:32:00.578Z,3.48
2022-08-25T10:32:57.820Z,3.44
2022-08-25T10:34:05.069Z,3.40
2022-08-25T10:34:52.652Z,3.36
2022-08-25T10:36:06.708Z,3.32
2022-08-25T10:37:00.297Z,3.29
2022-08-25T10:38:00.765Z,3.26
2022-08-25T10:38:52.454Z,3.24
2022-08-25T10:40:01.536Z,3.20
2022-08-25T10:40:58.147Z,3.15
2022-08-25T10:42:02.892Z,3.10
2022-08-25T10:42:56.272Z,3.06
2022-08-25T10:44:00.453Z,3.03
2022-08-25T10:45:16.625Z,3.01
2022-08-25T10:45:54.709Z,2.98
2022-08-25T10:46:54.300Z,2.97
2022-08-25T10:47:56.313Z,2.95
2022-08-25T10:49:06.102Z,2.94
2022-08-25T10:49:52.443Z,2.92
2022-08-25T10:50:59.546Z,2.90
2022-08-25T10:51:57.915Z,2.88
2022-08-25T10:53:01.783Z,2.87
2022-08-25T10:53:53.521Z,2.88
2022-08-25T10:54:58.293Z,2.89
2022-08-25T10:55:56.083Z,2.90
2022-08-25T10:58:04.905Z,2.91
2022-08-25T10:58:56.775Z,2.92
2022-08-25T11:00:01.975Z,2.93
2022-08-25T11:00:59.660Z,2.94
2022-08-25T11:02:06.099Z,2.95
2022-08-25T11:03:06.283Z,2.98
2022-08-25T11:04:00.686Z,2.99
2022-08-25T11:04:59.684Z,3.02
2022-08-25T11:05:54.715Z,3.04
2022-08-25T11:06:54.640Z,3.07
2022-08-25T11:07:51.988Z,3.09
2022-08-25T11:08:54.160Z,3.10
2022-08-25T11:10:55.508Z,3.09
2022-08-25T11:13:54.605Z,3.10
2022-08-25T11:14:53.695Z,3.12
2022-08-25T11:16:56.607Z,3.14
2022-08-25T11:19:50.812Z,3.13
2022-08-25T11:21:52.476Z,3.12
2022-08-25T11:22:55.483Z,3.11
2022-08-25T11:24:03.384Z,3.08
2022-08-25T11:24:57.422Z,3.06
2022-08-25T11:25:53.256Z,3.02
2022-08-25T11:26:55.848Z,2.99
2022-08-25T11:28:04.485Z,2.95
2022-08-25T11:28:55.704Z,2.91
2022-08-25T11:29:59.765Z,2.89
2022-08-25T11:30:49.033Z,2.86
2022-08-25T11:31:53.387Z,2.84
2022-08-25T11:32:52.601Z,2.81
2022-08-25T11:33:51.223Z,2.78
2022-08-25T11:34:48.233Z,2.76
2022-08-25T11:35:59.754Z,2.74
2022-08-25T11:36:57.878Z,2.73
2022-08-25T11:40:07.276Z,2.68
2022-08-25T11:41:04.520Z,2.60
2022-08-25T11:41:56.758Z,2.55
2022-08-25T11:42:58.128Z,2.51
2022-08-25T11:44:05.068Z,2.49
2022-08-25T11:45:02.840Z,2.48
2022-08-25T11:46:01.748Z,2.46
2022-08-25T11:46:59.919Z,2.44
2022-08-25T11:47:57.870Z,2.43
2022-08-25T11:49:06.224Z,2.41
2022-08-25T11:49:57.017Z,2.40
2022-08-25T11:51:50.528Z,2.41
2022-08-25T11:52:55.536Z,2.43
2022-08-25T11:53:48.625Z,2.46
2022-08-25T11:54:48.689Z,2.47
2022-08-25T11:55:53.946Z,2.48
2022-08-25T11:57:04.389Z,2.49
2022-08-25T11:58:52.439Z,2.48
2022-08-25T12:00:02.542Z,2.46
2022-08-25T12:00:48.193Z,2.42
2022-08-25T12:01:57.111Z,2.39
2022-08-25T12:02:50.751Z,2.34
2022-08-25T12:04:06.697Z,2.32
2022-08-25T12:06:02.733Z,2.33
2022-08-25T12:07:06.077Z,2.32
2022-08-25T12:08:08.913Z,2.33
2022-08-25T12:08:59.955Z,2.31
2022-08-25T12:09:57.319Z,2.28
2022-08-25T12:11:00.720Z,2.26
2022-08-25T12:11:54.791Z,2.24
2022-08-25T12:12:58.947Z,2.22
2022-08-25T12:13:50.747Z,2.21
2022-08-25T12:14:48.541Z,2.19
2022-08-25T12:15:58.004Z,2.17
2022-08-25T12:16:56.874Z,2.16
2022-08-25T12:19:53.718Z,2.17
2022-08-25T12:20:57.722Z,2.18
2022-08-25T12:21:48.344Z,2.19
2022-08-25T12:25:51.250Z,2.16
2022-08-25T12:26:54.072Z,2.15
2022-08-25T12:28:05.102Z,2.13
2022-08-25T12:28:56.876Z,2.11
2022-08-25T12:29:55.195Z,2.09
2022-08-25T12:30:56.252Z,2.08
2022-08-25T12:32:07.081Z,2.07
2022-08-25T12:32:56.695Z,2.06
2022-08-25T12:34:03.950Z,2.03
2022-08-25T12:35:57.946Z,2.02
2022-08-25T12:36:58.548Z,2.01
2022-08-25T12:37:58.665Z,2.00
2022-08-25T12:38:52.076Z,1.99
2022-08-25T12:40:00.787Z,1.98
2022-08-25T12:41:06.733Z,1.97
2022-08-25T12:45:50.175Z,1.98
2022-08-25T12:46:48.322Z,1.97
2022-08-25T12:47:50.334Z,1.96
2022-08-25T12:48:56.894Z,1.95
2022-08-25T12:49:48.608Z,1.94
2022-08-25T12:51:59.462Z,1.93
2022-08-25T12:52:48.997Z,1.94
2022-08-25T12:53:55.122Z,1.93
2022-08-25T12:54:54.743Z,1.94
2022-08-25T12:55:57.694Z,1.92
2022-08-25T12:56:56.469Z,1.91
2022-08-25T13:01:09.273Z,1.93
2022-08-25T13:02:03.084Z,1.94
2022-08-25T13:03:05.247Z,1.95
2022-08-25T13:04:57.720Z,1.96
2022-08-25T13:06:05.960Z,1.97
2022-08-25T13:10:06.025Z,1.96
2022-08-25T13:10:54.374Z,1.95
2022-08-25T13:11:51.225Z,1.93
2022-08-25T13:12:53.324Z,1.91
2022-08-25T13:13:51.896Z,1.89
2022-08-25T13:14:57.664Z,1.90
2022-08-25T13:15:58.602Z,1.91
2022-08-25T13:16:58.301Z,1.93
2022-08-25T13:19:48.056Z,1.92
2022-08-25T13:20:50.417Z,1.91
2022-08-25T13:21:49.352Z,1.90
2022-08-25T13:22:56.724Z,1.91
2022-08-25T13:24:51.250Z,1.90
2022-08-25T13:26:52.355Z,1.89
2022-08-25T13:27:53.602Z,1.88
2022-08-25T13:30:58.046Z,1.89
2022-08-25T13:32:48.191Z,1.90
2022-08-25T13:33:58.319Z,1.91
2022-08-25T13:36:00.525Z,1.92
2022-08-25T13:36:59.029Z,1.93
2022-08-25T13:38:50.181Z,1.94
2022-08-25T13:39:56.355Z,1.95
2022-08-25T13:40:48.095Z,1.96
2022-08-25T13:41:54.532Z,1.97
2022-08-25T13:42:55.526Z,1.98
2022-08-25T13:43:48.222Z,1.97
2022-08-25T13:45:50.529Z,1.98
2022-08-25T13:46:48.952Z,1.97
2022-08-25T13:48:49.676Z,1.96
2022-08-25T13:49:49.083Z,1.97
2022-08-25T13:51:55.403Z,1.98
2022-08-25T13:53:55.022Z,1.99
2022-08-25T13:56:48.058Z,1.98
2022-08-25T13:58:48.017Z,1.99
2022-08-25T14:02:51.559Z,1.97
2022-08-25T14:04:51.503Z,1.96
2022-08-25T14:05:48.053Z,1.97
2022-08-25T14:06:48.028Z,1.96
2022-08-25T14:11:56.735Z,1.95
2022-08-25T14:15:01.113Z,1.94
2022-08-25T14:20:51.772Z,1.95
2022-08-25T14:21:49.706Z,1.94
2022-08-25T14:22:48.567Z,1.93
2022-08-25T14:24:48.231Z,1.92
2022-08-25T14:25:50.141Z,1.91
2022-08-25T14:26:54.415Z,1.90
2022-08-25T14:28:07.388Z,1.88
2022-08-25T14:28:49.727Z,1.84
2022-08-25T14:29:51.035Z,1.80
2022-08-25T14:30:52.385Z,1.75
2022-08-25T14:31:48.447Z,1.70
2022-08-25T14:32:48.030Z,1.67
2022-08-25T14:33:54.682Z,1.64
2022-08-25T14:34:48.041Z,1.63
2022-08-25T14:35:50.381Z,1.62
2022-08-25T14:36:48.714Z,1.61
2022-08-25T14:37:49.259Z,1.60
2022-08-25T14:38:48.012Z,1.61
2022-08-25T14:39:48.110Z,1.62
2022-08-25T14:40:48.691Z,1.64
2022-08-25T14:41:52.557Z,1.66
2022-08-25T14:42:48.290Z,1.67
2022-08-25T14:43:48.248Z,1.68
2022-08-25T14:44:47.920Z,1.69
2022-08-25T14:46:52.676Z,1.70
2022-08-25T14:47:49.892Z,1.71
2022-08-25T14:48:52.334Z,1.72
2022-08-25T14:49:50.173Z,1.73
2022-08-25T14:50:48.080Z,1.74
2022-08-25T14:53:48.449Z,1.73
2022-08-25T14:55:49.419Z,1.72
2022-08-25T14:56:49.436Z,1.73
2022-08-25T14:57:48.080Z,1.74
2022-08-25T15:03:51.022Z,1.73
2022-08-25T15:05:48.071Z,1.72
2022-08-25T15:07:57.265Z,1.73
2022-08-25T15:08:57.728Z,1.72
2022-08-25T15:10:47.904Z,1.73
2022-08-25T15:12:48.212Z,1.72
2022-08-25T15:16:51.124Z,1.73
2022-08-25T15:17:50.263Z,1.72
2022-08-25T15:19:47.940Z,1.73
2022-08-25T15:21:49.804Z,1.72
2022-08-25T15:22:48.381Z,1.71
2022-08-25T15:23:47.925Z,1.69
2022-08-25T15:24:47.982Z,1.68
2022-08-25T15:25:52.881Z,1.66
2022-08-25T15:27:47.904Z,1.62
2022-08-25T15:29:48.077Z,1.61
2022-08-25T15:32:48.483Z,1.62
2022-08-25T15:33:48.244Z,1.63
2022-08-25T15:35:48.008Z,1.61
2022-08-25T15:36:48.705Z,1.60
2022-08-25T15:37:48.505Z,1.59
2022-08-25T15:38:48.745Z,1.60
2022-08-25T15:39:49.049Z,1.61
2022-08-25T15:42:47.968Z,1.60
2022-08-25T15:43:47.909Z,1.59
2022-08-25T15:44:53.051Z,1.58
2022-08-25T15:45:50.268Z,1.57
2022-08-25T15:46:49.997Z,1.58
2022-08-25T15:49:47.949Z,1.57